createdAt,value
2019-05-16T00:02:18.414Z,81.03
2019-05-16T00:04:44.706Z,81.05
2019-05-16T00:07:11.303Z,81.19
2019-05-16T00:09:39.816Z,80.86
2019-05-16T00:12:08.741Z,80.77
2019-05-16T00:14:35.268Z,80.29
2019-05-16T00:17:02.003Z,80.47
2019-05-16T00:19:28.893Z,80.51
2019-05-16T00:21:59.895Z,80.90
2019-05-16T00:24:26.536Z,81.09
2019-05-16T00:26:53.409Z,80.98
2019-05-16T00:29:20.108Z,81.27
2019-05-16T00:31:48.690Z,81.41
2019-05-16T00:34:18.877Z,81.63
2019-05-16T00:36:45.725Z,81.28
2019-05-16T00:39:12.392Z,81.15
2019-05-16T00:41:39.123Z,81.10
2019-05-16T00:44:05.688Z,80.97
2019-05-16T00:46:32.338Z,80.83
2019-05-16T00:48:59.092Z,80.38
2019-05-16T00:51:25.872Z,80.18
2019-05-16T00:53:55.708Z,80.37
2019-05-16T00:56:25.008Z,80.48
2019-05-16T00:58:52.668Z,80.47
2019-05-16T01:01:19.388Z,80.62
2019-05-16T01:03:48.181Z,80.55
2019-05-16T01:06:19.859Z,80.84
2019-05-16T01:08:43.326Z,80.96
2019-05-16T01:11:10.387Z,81.21
2019-05-16T01:13:38.215Z,81.06
2019-05-16T01:16:04.889Z,80.96
2019-05-16T01:18:31.490Z,81.63
2019-05-16T01:20:58.698Z,81.49
2019-05-16T01:23:25.579Z,81.44
2019-05-16T01:25:53.477Z,81.63
2019-05-16T01:28:20.105Z,82.00
2019-05-16T01:30:48.834Z,82.01
2019-05-16T01:33:15.690Z,82.61
2019-05-16T01:35:42.355Z,82.30
2019-05-16T01:38:09.103Z,82.40
2019-05-16T01:40:38.772Z,82.13
2019-05-16T01:43:05.383Z,82.13
2019-05-16T01:45:32.041Z,82.11
2019-05-16T01:47:58.784Z,82.10
2019-05-16T01:50:25.499Z,81.61
2019-05-16T01:52:52.190Z,81.46
2019-05-16T01:55:18.867Z,81.89
2019-05-16T01:57:45.455Z,81.77
2019-05-16T02:00:12.282Z,81.64
2019-05-16T02:02:39.286Z,81.68
2019-05-16T02:05:09.508Z,81.90
2019-05-16T02:07:38.188Z,81.68
2019-05-16T02:10:08.404Z,81.83
2019-05-16T02:12:38.529Z,82.85
2019-05-16T02:15:07.882Z,82.78
2019-05-16T02:17:34.761Z,82.67
2019-05-16T02:20:01.972Z,82.31
2019-05-16T02:22:28.634Z,82.71
2019-05-16T02:24:55.324Z,83.00
2019-05-16T02:27:21.943Z,83.36
2019-05-16T02:29:50.564Z,83.30
2019-05-16T02:32:21.973Z,83.42
2019-05-16T02:34:51.323Z,83.60
2019-05-16T02:37:29.300Z,83.41
2019-05-16T02:39:45.638Z,82.92
2019-05-16T02:42:12.419Z,82.75
2019-05-16T02:44:41.181Z,82.55
2019-05-16T02:47:10.833Z,81.26
2019-05-16T02:49:36.657Z,81.54
2019-05-16T02:52:03.412Z,81.50
2019-05-16T02:54:31.611Z,81.52
2019-05-16T02:57:01.431Z,81.23
2019-05-16T02:59:30.712Z,81.48
2019-05-16T03:01:57.162Z,80.44
2019-05-16T03:04:23.868Z,80.86
2019-05-16T03:06:51.365Z,81.33
2019-05-16T03:09:21.415Z,81.31
2019-05-16T03:11:50.966Z,81.99
2019-05-16T03:14:21.193Z,81.94
2019-05-16T03:16:50.592Z,81.57
2019-05-16T03:19:17.444Z,81.47
2019-05-16T03:21:44.120Z,82.09
2019-05-16T03:24:11.431Z,82.52
2019-05-16T03:26:40.900Z,83.14
2019-05-16T03:29:07.196Z,83.05
2019-05-16T03:31:34.532Z,83.12
2019-05-16T03:34:07.621Z,82.69
2019-05-16T03:36:34.504Z,82.79
2019-05-16T03:39:01.190Z,83.23
2019-05-16T03:41:27.263Z,82.80
2019-05-16T03:43:54.287Z,82.61
2019-05-16T03:46:24.229Z,83.07
2019-05-16T03:48:51.805Z,82.91
2019-05-16T03:51:21.541Z,82.28
2019-05-16T03:53:50.617Z,82.52
2019-05-16T03:56:16.305Z,82.56
2019-05-16T03:58:42.939Z,82.04
2019-05-16T04:01:11.141Z,81.37
2019-05-16T04:03:41.265Z,81.94
2019-05-16T04:06:06.701Z,81.59
2019-05-16T04:08:33.335Z,81.85
2019-05-16T04:11:01.441Z,81.99
2019-05-16T04:13:31.429Z,81.80
2019-05-16T04:16:01.268Z,82.18
2019-05-16T04:18:26.996Z,81.32
2019-05-16T04:20:53.642Z,81.56
2019-05-16T04:23:20.647Z,81.40
2019-05-16T04:25:47.547Z,82.43
2019-05-16T04:28:15.473Z,82.23
2019-05-16T04:30:43.738Z,81.62
2019-05-16T04:33:11.044Z,81.09
2019-05-16T04:35:40.982Z,81.81
2019-05-16T04:38:06.842Z,81.75
2019-05-16T04:40:33.462Z,81.46
2019-05-16T04:43:01.239Z,81.23
2019-05-16T04:45:31.582Z,81.33
2019-05-16T04:47:56.773Z,81.32
2019-05-16T04:50:23.482Z,80.81
2019-05-16T04:52:51.803Z,80.61
2019-05-16T04:55:21.074Z,81.54
2019-05-16T04:57:47.195Z,81.21
2019-05-16T05:00:14.105Z,81.44
2019-05-16T05:02:42.084Z,81.22
2019-05-16T05:05:12.649Z,81.65
2019-05-16T05:07:40.674Z,81.65
2019-05-16T05:10:06.980Z,81.50
2019-05-16T05:12:33.646Z,81.49
2019-05-16T05:15:01.405Z,81.66
2019-05-16T05:17:30.612Z,80.95
2019-05-16T05:19:57.002Z,81.34
2019-05-16T05:22:23.947Z,80.87
2019-05-16T05:24:51.637Z,81.14
2019-05-16T05:27:20.249Z,81.33
2019-05-16T05:29:46.863Z,81.33
2019-05-16T05:32:14.573Z,80.57
2019-05-16T05:34:41.381Z,80.35
2019-05-16T05:37:12.256Z,80.84
2019-05-16T05:39:37.093Z,80.41
2019-05-16T05:42:03.777Z,80.32
2019-05-16T05:44:30.746Z,79.27
2019-05-16T05:47:00.302Z,79.35
2019-05-16T05:49:30.016Z,78.85
2019-05-16T05:51:56.136Z,78.72
2019-05-16T05:54:22.736Z,78.40
2019-05-16T05:56:50.340Z,78.57
2019-05-16T05:59:16.960Z,78.72
2019-05-16T06:01:52.042Z,78.42
2019-05-16T06:04:19.767Z,78.83
2019-05-16T06:06:50.340Z,78.71
2019-05-16T06:09:28.323Z,78.76
2019-05-16T06:11:51.026Z,79.00
2019-05-16T06:14:21.022Z,76.63
2019-05-16T06:16:47.020Z,78.12
2019-05-16T06:19:14.727Z,78.52
2019-05-16T06:21:44.519Z,76.64
2019-05-16T06:24:10.900Z,73.98
2019-05-16T06:26:39.780Z,73.72
2019-05-16T06:29:10.426Z,74.42
2019-05-16T06:31:36.947Z,75.42
2019-05-16T06:34:08.167Z,76.68
2019-05-16T06:36:32.106Z,75.08
2019-05-16T06:39:00.204Z,74.98
2019-05-16T06:41:27.285Z,74.37
2019-05-16T06:43:53.917Z,74.09
2019-05-16T06:46:20.904Z,74.63
2019-05-16T06:48:47.483Z,74.29
2019-05-16T06:51:14.131Z,74.75
2019-05-16T06:53:41.280Z,76.58
2019-05-16T06:56:10.328Z,75.95
2019-05-16T06:58:45.700Z,75.57
2019-05-16T07:01:05.066Z,73.04
2019-05-16T07:03:31.687Z,73.40
2019-05-16T07:06:00.587Z,72.90
2019-05-16T07:08:30.706Z,72.34
2019-05-16T07:10:59.858Z,70.85
2019-05-16T07:13:26.616Z,70.83
2019-05-16T07:15:54.254Z,71.58
2019-05-16T07:18:21.458Z,72.87
2019-05-16T07:20:50.725Z,70.83
2019-05-16T07:23:17.098Z,70.99
2019-05-16T07:25:44.904Z,70.55
2019-05-16T07:28:12.533Z,70.80
2019-05-16T07:30:40.810Z,69.97
2019-05-16T07:33:09.698Z,70.56
2019-05-16T07:35:36.199Z,71.02
2019-05-16T07:38:02.796Z,70.17
2019-05-16T07:40:31.411Z,67.72
2019-05-16T07:43:00.856Z,69.87
2019-05-16T07:45:27.538Z,68.72
2019-05-16T07:47:54.139Z,66.72
2019-05-16T07:50:22.640Z,67.41
2019-05-16T07:52:51.188Z,67.63
2019-05-16T07:55:20.576Z,68.97
2019-05-16T07:57:47.467Z,67.88
2019-05-16T08:00:16.049Z,66.99
2019-05-16T08:02:42.671Z,66.61
2019-05-16T08:05:10.312Z,67.05
2019-05-16T08:07:39.980Z,65.59
2019-05-16T08:10:06.217Z,65.07
2019-05-16T08:12:33.173Z,66.01
2019-05-16T08:15:01.682Z,65.42
2019-05-16T08:17:31.569Z,63.38
2019-05-16T08:20:00.072Z,65.66
2019-05-16T08:22:26.805Z,66.88
2019-05-16T08:24:53.413Z,63.24
2019-05-16T08:27:22.996Z,63.48
2019-05-16T08:29:51.389Z,63.80
2019-05-16T08:32:22.634Z,65.94
2019-05-16T08:34:47.109Z,63.46
2019-05-16T08:37:34.017Z,59.35
2019-05-16T08:39:42.876Z,60.08
2019-05-16T08:42:13.087Z,60.45
2019-05-16T08:44:41.855Z,61.84
2019-05-16T08:47:11.576Z,63.80
2019-05-16T08:49:37.411Z,63.50
2019-05-16T08:52:05.186Z,63.37
2019-05-16T08:54:33.645Z,65.01
2019-05-16T08:57:25.553Z,63.40
2019-05-16T08:59:33.826Z,60.94
2019-05-16T09:02:03.536Z,62.18
2019-05-16T09:04:33.985Z,62.01
2019-05-16T09:07:01.982Z,60.00
2019-05-16T09:11:57.395Z,60.66
2019-05-16T09:14:27.620Z,59.14
2019-05-16T09:16:53.908Z,59.07
2019-05-16T09:18:38.346Z,61.57
2019-05-16T09:19:20.549Z,58.77
2019-05-16T09:21:47.647Z,62.32
2019-05-16T09:24:17.523Z,59.19
2019-05-16T09:26:47.369Z,57.60
2019-05-16T09:29:13.506Z,61.29
2019-05-16T09:31:41.936Z,56.52
2019-05-16T09:34:08.990Z,58.94
2019-05-16T09:36:37.368Z,58.19
2019-05-16T09:39:08.379Z,59.37
2019-05-16T09:41:47.611Z,59.49
2019-05-16T09:44:03.840Z,58.03
2019-05-16T09:46:30.495Z,57.17
2019-05-16T09:49:18.934Z,56.57
2019-05-16T09:51:27.209Z,56.50
2019-05-16T09:53:56.731Z,59.11
2019-05-16T09:56:23.133Z,60.22
2019-05-16T09:58:49.774Z,57.07
2019-05-16T10:01:17.550Z,57.56
2019-05-16T10:03:47.634Z,57.48
2019-05-16T10:06:13.173Z,59.53
2019-05-16T10:08:39.774Z,55.74
2019-05-16T10:11:06.581Z,58.56
2019-05-16T10:13:33.638Z,57.48
2019-05-16T10:16:00.646Z,58.79
2019-05-16T10:18:27.968Z,58.17
2019-05-16T10:20:58.999Z,56.80
2019-05-16T10:23:23.412Z,56.40
2019-05-16T10:25:49.994Z,55.56
2019-05-16T10:28:17.372Z,55.84
2019-05-16T10:30:47.094Z,54.42
2019-05-16T10:33:17.323Z,54.33
2019-05-16T10:35:42.567Z,53.04
2019-05-16T10:38:11.835Z,52.45
2019-05-16T10:40:38.762Z,53.75
2019-05-16T10:43:07.174Z,56.42
2019-05-16T10:45:36.711Z,56.44
2019-05-16T10:48:03.026Z,57.00
2019-05-16T10:50:29.696Z,56.05
2019-05-16T10:53:22.579Z,55.53
2019-05-16T10:55:27.757Z,55.71
2019-05-16T10:57:57.296Z,56.15
2019-05-16T11:00:48.918Z,54.13
2019-05-16T11:02:52.859Z,55.09
2019-05-16T11:05:29.925Z,56.03
2019-05-16T11:07:52.743Z,55.03
2019-05-16T11:10:17.339Z,55.80
2019-05-16T11:12:51.116Z,56.62
2019-05-16T11:15:17.015Z,56.29
2019-05-16T11:17:42.709Z,57.70
2019-05-16T11:20:09.880Z,55.70
2019-05-16T11:22:37.156Z,55.62
2019-05-16T11:25:20.245Z,54.65
2019-05-16T11:27:34.233Z,54.38
2019-05-16T11:30:00.875Z,53.32
2019-05-16T11:32:27.490Z,53.50
2019-05-16T11:34:54.172Z,50.60
2019-05-16T11:37:20.792Z,50.59
2019-05-16T11:39:47.736Z,50.47
2019-05-16T11:42:17.329Z,51.27
2019-05-16T11:44:47.828Z,51.71
2019-05-16T11:47:16.488Z,50.56
2019-05-16T11:49:42.656Z,49.30
2019-05-16T11:52:11.327Z,50.83
2019-05-16T11:54:38.166Z,49.90
2019-05-16T11:57:06.883Z,48.27
2019-05-16T11:59:34.175Z,48.54
2019-05-16T12:02:02.169Z,48.86
2019-05-16T12:04:28.834Z,49.40
2019-05-16T12:06:57.390Z,51.45
2019-05-16T12:09:33.421Z,50.41
2019-05-16T12:12:02.653Z,49.05
2019-05-16T12:14:27.252Z,49.05
2019-05-16T12:16:56.808Z,51.46
2019-05-16T12:19:22.663Z,50.78
2019-05-16T12:21:49.254Z,51.29
2019-05-16T12:24:29.237Z,52.75
2019-05-16T12:26:49.456Z,50.92
2019-05-16T12:29:17.306Z,50.60
2019-05-16T12:31:55.394Z,52.01
2019-05-16T12:34:15.065Z,52.56
2019-05-16T12:36:42.450Z,50.98
2019-05-16T12:39:10.150Z,52.72
2019-05-16T12:41:40.875Z,52.26
2019-05-16T12:44:07.672Z,52.12
2019-05-16T12:46:36.521Z,53.82
2019-05-16T12:49:03.560Z,53.07
2019-05-16T12:51:31.659Z,53.14
2019-05-16T12:53:58.382Z,53.52
2019-05-16T12:56:27.315Z,53.54
2019-05-16T12:58:53.954Z,54.71
2019-05-16T13:01:21.099Z,55.52
2019-05-16T13:03:49.897Z,55.85
2019-05-16T13:06:18.083Z,55.11
2019-05-16T13:08:46.723Z,55.53
2019-05-16T13:11:13.309Z,54.95
2019-05-16T13:13:39.901Z,55.71
2019-05-16T13:16:07.567Z,55.49
2019-05-16T13:18:36.793Z,55.55
2019-05-16T13:21:03.180Z,54.96
2019-05-16T13:23:29.821Z,53.84
2019-05-16T13:25:57.537Z,53.85
2019-05-16T13:28:24.535Z,54.55
2019-05-16T13:30:51.149Z,52.15
2019-05-16T13:33:17.992Z,54.72
2019-05-16T13:35:46.979Z,55.56
2019-05-16T13:38:17.159Z,52.45
2019-05-16T13:40:43.033Z,52.15
2019-05-16T13:43:26.788Z,53.49
2019-05-16T13:45:52.850Z,52.10
2019-05-16T13:48:19.477Z,52.90
2019-05-16T13:50:47.456Z,53.88
2019-05-16T13:53:16.392Z,52.55
2019-05-16T13:55:42.897Z,54.37
2019-05-16T13:58:10.615Z,55.22
2019-05-16T14:00:37.741Z,56.06
2019-05-16T14:03:07.123Z,55.72
2019-05-16T14:05:34.162Z,56.18
2019-05-16T14:08:00.770Z,56.82
2019-05-16T14:10:29.685Z,57.93
2019-05-16T14:12:57.722Z,58.17
2019-05-16T14:15:26.929Z,58.46
2019-05-16T14:17:53.133Z,58.96
2019-05-16T14:20:20.145Z,59.53
2019-05-16T14:22:46.828Z,59.42
2019-05-16T14:25:13.758Z,57.36
2019-05-16T14:27:40.371Z,57.00
2019-05-16T14:30:08.196Z,58.21
2019-05-16T14:32:40.955Z,57.96
2019-05-16T14:35:08.027Z,55.78
2019-05-16T14:37:32.791Z,57.28
2019-05-16T14:40:01.963Z,57.46
2019-05-16T14:42:28.814Z,56.23
2019-05-16T14:45:10.414Z,56.45
2019-05-16T14:47:27.634Z,56.24
2019-05-16T14:49:54.296Z,55.67
2019-05-16T14:52:20.977Z,57.25
2019-05-16T14:54:48.441Z,58.11
2019-05-16T14:57:16.690Z,58.39
2019-05-16T14:59:47.083Z,56.55
2019-05-16T15:02:13.654Z,56.55
2019-05-16T15:04:40.315Z,55.82
2019-05-16T15:07:07.128Z,56.69
2019-05-16T15:09:34.167Z,56.63
2019-05-16T15:12:02.578Z,56.16
2019-05-16T15:14:29.261Z,56.03
2019-05-16T15:16:57.631Z,57.36
2019-05-16T15:19:24.390Z,58.20
2019-05-16T15:21:51.080Z,57.24
2019-05-16T15:24:17.994Z,56.99
2019-05-16T15:26:47.261Z,56.38
2019-05-16T15:29:16.367Z,56.73
2019-05-16T15:31:42.365Z,58.21
2019-05-16T15:34:09.107Z,57.46
2019-05-16T15:36:37.346Z,58.85
2019-05-16T15:39:08.015Z,57.08
2019-05-16T15:41:36.686Z,56.30
2019-05-16T15:44:03.952Z,56.17
2019-05-16T15:46:30.546Z,56.14
2019-05-16T15:49:00.481Z,56.62
2019-05-16T15:51:27.429Z,55.80
2019-05-16T15:53:54.575Z,56.25
2019-05-16T15:56:21.631Z,56.67
2019-05-16T15:58:48.378Z,57.26
2019-05-16T16:01:14.989Z,58.60
2019-05-16T16:03:41.617Z,58.11
2019-05-16T16:06:08.297Z,59.17
2019-05-16T16:08:37.419Z,57.68
2019-05-16T16:11:07.056Z,56.29
2019-05-16T16:13:33.181Z,56.89
2019-05-16T16:15:59.865Z,57.68
2019-05-16T16:18:27.165Z,57.64
2019-05-16T16:20:56.799Z,58.68
2019-05-16T16:23:22.583Z,59.44
2019-05-16T16:25:51.042Z,59.81
2019-05-16T16:28:18.054Z,59.67
2019-05-16T16:30:47.308Z,61.21
2019-05-16T16:33:25.093Z,61.21
2019-05-16T16:35:41.923Z,61.37
2019-05-16T16:38:08.593Z,61.30
2019-05-16T16:40:37.529Z,59.85
2019-05-16T16:43:03.867Z,59.68
2019-05-16T16:45:30.512Z,60.77
2019-05-16T16:47:57.446Z,60.81
2019-05-16T16:50:26.385Z,61.61
2019-05-16T16:52:52.850Z,60.46
2019-05-16T16:55:19.666Z,60.96
2019-05-16T16:57:47.187Z,61.20
2019-05-16T17:00:17.596Z,61.77
2019-05-16T17:02:58.356Z,62.01
2019-05-16T17:05:16.917Z,62.23
2019-05-16T17:07:43.432Z,62.67
2019-05-16T17:10:10.732Z,62.51
2019-05-16T17:12:42.185Z,63.16
2019-05-16T17:15:09.114Z,62.56
2019-05-16T17:17:37.387Z,63.37
2019-05-16T17:20:07.646Z,62.71
2019-05-16T17:22:37.429Z,62.44
2019-05-16T17:25:10.578Z,62.17
2019-05-16T17:27:39.383Z,62.35
2019-05-16T17:30:20.096Z,62.53
2019-05-16T17:32:56.628Z,63.28
2019-05-16T17:35:31.129Z,62.69
2019-05-16T17:37:59.717Z,63.45
2019-05-16T17:40:27.658Z,62.90
2019-05-16T17:43:00.015Z,62.71
2019-05-16T17:45:28.637Z,62.41
2019-05-16T17:47:57.239Z,63.06
2019-05-16T17:50:26.389Z,63.21
2019-05-16T17:53:17.085Z,63.75
2019-05-16T17:55:57.249Z,64.31
2019-05-16T17:58:27.083Z,64.60
2019-05-16T18:01:00.933Z,65.24
2019-05-16T18:03:31.767Z,65.31
2019-05-16T18:05:59.540Z,65.69
2019-05-16T18:08:27.129Z,65.74
2019-05-16T18:11:01.413Z,66.63
2019-05-16T18:13:29.172Z,66.38
2019-05-16T18:16:07.254Z,66.75
2019-05-16T18:18:37.515Z,66.81
2019-05-16T18:21:10.221Z,66.72
2019-05-16T18:23:47.196Z,67.04
2019-05-16T18:26:17.338Z,67.23
2019-05-16T18:28:47.850Z,66.21
2019-05-16T18:31:16.839Z,66.08
2019-05-16T18:33:44.166Z,66.78
2019-05-16T18:36:10.751Z,66.93
2019-05-16T18:38:37.557Z,67.12
2019-05-16T18:41:04.403Z,67.22
2019-05-16T18:43:31.514Z,66.79
2019-05-16T18:45:58.133Z,66.77
2019-05-16T18:48:27.026Z,66.87
2019-05-16T18:50:53.250Z,67.19
2019-05-16T18:53:19.865Z,66.71
2019-05-16T18:55:46.460Z,66.09
2019-05-16T18:58:13.070Z,65.64
2019-05-16T19:00:39.884Z,65.93
2019-05-16T19:03:07.803Z,66.25
2019-05-16T19:05:37.064Z,66.59
2019-05-16T19:08:03.440Z,66.92
2019-05-16T19:10:30.022Z,66.56
2019-05-16T19:12:59.703Z,66.61
2019-05-16T19:15:26.711Z,66.66
2019-05-16T19:17:53.822Z,65.94
2019-05-16T19:20:20.912Z,65.27
2019-05-16T19:22:47.541Z,65.27
2019-05-16T19:25:14.371Z,65.51
2019-05-16T19:27:41.000Z,64.22
2019-05-16T19:30:08.670Z,64.40
2019-05-16T19:32:39.108Z,65.18
2019-05-16T19:35:07.039Z,65.67
2019-05-16T19:37:37.910Z,65.17
2019-05-16T19:40:06.401Z,65.73
2019-05-16T19:42:33.211Z,65.68
2019-05-16T19:44:59.881Z,65.18
2019-05-16T19:47:36.784Z,65.87
2019-05-16T19:49:56.891Z,64.93
2019-05-16T19:52:26.864Z,65.69
2019-05-16T19:54:53.095Z,65.57
2019-05-16T19:57:21.162Z,64.91
2019-05-16T19:59:47.844Z,65.55
2019-05-16T20:02:16.558Z,65.27
2019-05-16T20:04:43.049Z,66.17
2019-05-16T20:07:09.712Z,66.50
2019-05-16T20:09:37.308Z,66.89
2019-05-16T20:12:04.041Z,66.37
2019-05-16T20:14:32.015Z,66.38
2019-05-16T20:16:58.591Z,66.69
2019-05-16T20:19:26.808Z,67.41
2019-05-16T20:21:53.689Z,67.19
2019-05-16T20:24:20.778Z,65.98
2019-05-16T20:26:47.384Z,66.08
2019-05-16T20:29:16.891Z,67.46
2019-05-16T20:31:42.852Z,67.25
2019-05-16T20:34:09.563Z,68.66
2019-05-16T20:36:37.080Z,67.83
2019-05-16T20:39:08.545Z,67.69
2019-05-16T20:41:36.816Z,67.72
2019-05-16T20:44:06.605Z,68.54
2019-05-16T20:46:33.394Z,68.56
2019-05-16T20:49:00.009Z,68.31
2019-05-16T20:51:27.940Z,68.94
2019-05-16T20:53:58.801Z,69.03
2019-05-16T20:56:26.540Z,69.36
2019-05-16T20:58:53.297Z,69.37
2019-05-16T21:01:19.901Z,70.05
2019-05-16T21:03:46.827Z,69.81
2019-05-16T21:06:14.014Z,69.96
2019-05-16T21:08:41.820Z,70.15
2019-05-16T21:11:08.444Z,70.23
2019-05-16T21:13:36.028Z,70.60
2019-05-16T21:16:02.806Z,71.06
2019-05-16T21:18:29.420Z,71.37
2019-05-16T21:20:57.461Z,71.64
2019-05-16T21:23:27.201Z,71.81
2019-05-16T21:25:57.011Z,71.58
2019-05-16T21:28:23.349Z,71.52
2019-05-16T21:30:51.805Z,71.91
2019-05-16T21:33:19.796Z,72.23
2019-05-16T21:35:47.583Z,72.74
2019-05-16T21:38:16.319Z,72.74
2019-05-16T21:40:42.793Z,72.97
2019-05-16T21:43:09.404Z,73.52
2019-05-16T21:45:37.172Z,73.50
2019-05-16T21:48:04.004Z,74.02
2019-05-16T21:50:30.632Z,73.43
2019-05-16T21:52:57.269Z,72.46
2019-05-16T21:55:23.908Z,72.19
2019-05-16T21:57:50.596Z,72.49
2019-05-16T22:00:31.662Z,72.82
2019-05-16T22:03:00.248Z,72.92
2019-05-16T22:05:27.390Z,72.46
2019-05-16T22:07:54.017Z,73.16
2019-05-16T22:10:20.789Z,73.85
2019-05-16T22:12:47.814Z,73.57
2019-05-16T22:15:14.452Z,73.19
2019-05-16T22:17:43.114Z,72.69
2019-05-16T22:20:10.409Z,72.77
2019-05-16T22:22:38.119Z,72.80
2019-05-16T22:25:07.685Z,73.23
2019-05-16T22:27:34.197Z,73.52
2019-05-16T22:30:01.035Z,73.95
2019-05-16T22:32:28.818Z,74.39
2019-05-16T22:34:57.010Z,74.62
2019-05-16T22:37:26.557Z,74.60
2019-05-16T22:39:53.457Z,75.10
2019-05-16T22:42:20.086Z,75.34
2019-05-16T22:44:46.743Z,75.47
2019-05-16T22:47:13.391Z,75.65
2019-05-16T22:49:41.040Z,75.89
2019-05-16T22:52:07.629Z,76.00
2019-05-16T22:54:36.879Z,75.72
2019-05-16T22:57:03.641Z,75.22
2019-05-16T22:59:30.637Z,75.28
2019-05-16T23:01:57.269Z,75.41
2019-05-16T23:04:23.859Z,75.45
2019-05-16T23:06:51.325Z,75.19
2019-05-16T23:09:19.340Z,75.06
2019-05-16T23:11:45.974Z,75.39
2019-05-16T23:14:12.585Z,75.02
2019-05-16T23:16:42.101Z,75.43
2019-05-16T23:19:11.813Z,75.54
2019-05-16T23:21:39.358Z,75.12
2019-05-16T23:24:06.683Z,75.46
2019-05-16T23:26:33.565Z,75.22
2019-05-16T23:29:00.325Z,75.20
2019-05-16T23:31:28.053Z,74.65
2019-05-16T23:33:56.451Z,74.88
2019-05-16T23:36:26.517Z,74.45
2019-05-16T23:38:53.362Z,74.78
2019-05-16T23:41:20.026Z,74.55
2019-05-16T23:43:47.379Z,74.74
2019-05-16T23:46:16.387Z,75.12
2019-05-16T23:48:42.758Z,74.87
2019-05-16T23:51:09.349Z,74.96
2019-05-16T23:53:37.115Z,75.28
2019-05-16T23:56:04.007Z,74.90
2019-05-16T23:58:30.646Z,74.65
